sensor_id;sensor_type;location;lat;lon;timestamp;P1;durP1;ratioP1;P2;durP2;ratioP2
15281;SDS011;7742;44.320;19.820;2022-07-22T00:40:15;14.40;;;13.80;;
15281;SDS011;7742;44.320;19.820;2022-07-22T00:42:49;14.20;;;13.40;;
15281;SDS011;7742;44.320;19.820;2022-07-22T00:45:19;14.77;;;13.77;;
15281;SDS011;7742;44.320;19.820;2022-07-22T00:47:47;15.10;;;14.30;;
15281;SDS011;7742;44.320;19.820;2022-07-22T00:50:15;14.40;;;13.60;;
15281;SDS011;7742;44.320;19.820;2022-07-22T00:52:45;14.80;;;14.10;;
15281;SDS011;7742;44.320;19.820;2022-07-22T00:55:15;14.27;;;13.67;;
15281;SDS011;7742;44.320;19.820;2022-07-22T00:57:45;14.60;;;14.00;;
15281;SDS011;7742;44.320;19.820;2022-07-22T01:00:15;14.53;;;13.87;;
15281;SDS011;7742;44.320;19.820;2022-07-22T01:02:45;14.73;;;14.03;;
15281;SDS011;7742;44.320;19.820;2022-07-22T01:08:18;14.90;;;14.20;;
15281;SDS011;7742;44.320;19.820;2022-07-22T01:10:47;14.90;;;14.20;;
15281;SDS011;7742;44.320;19.820;2022-07-22T01:13:16;14.90;;;14.20;;
15281;SDS011;7742;44.320;19.820;2022-07-22T01:16:08;14.50;;;13.80;;
15281;SDS011;7742;44.320;19.820;2022-07-22T01:19:07;14.87;;;14.17;;
15281;SDS011;7742;44.320;19.820;2022-07-22T01:21:48;14.57;;;13.87;;
15281;SDS011;7742;44.320;19.820;2022-07-22T01:24:35;14.90;;;14.20;;
15281;SDS011;7742;44.320;19.820;2022-07-22T01:27:10;15.67;;;14.47;;
15281;SDS011;7742;44.320;19.820;2022-07-22T01:29:47;14.77;;;13.97;;
15281;SDS011;7742;44.320;19.820;2022-07-22T01:32:49;14.10;;;13.50;;
15281;SDS011;7742;44.320;19.820;2022-07-22T01:36:03;14.80;;;14.10;;
15281;SDS011;7742;44.320;19.820;2022-07-22T01:39:01;13.70;;;13.10;;
15281;SDS011;7742;44.320;19.820;2022-07-22T01:44:37;14.43;;;13.80;;
15281;SDS011;7742;44.320;19.820;2022-07-22T01:56:59;14.13;;;13.43;;
15281;SDS011;7742;44.320;19.820;2022-07-22T01:59:27;13.87;;;13.27;;
15281;SDS011;7742;44.320;19.820;2022-07-22T02:01:57;15.10;;;14.40;;
15281;SDS011;7742;44.320;19.820;2022-07-22T02:04:27;14.80;;;14.00;;
15281;SDS011;7742;44.320;19.820;2022-07-22T02:10:11;15.00;;;14.10;;
15281;SDS011;7742;44.320;19.820;2022-07-22T02:41:14;15.60;;;14.77;;
15281;SDS011;7742;44.320;19.820;2022-07-22T02:43:57;15.50;;;14.70;;
15281;SDS011;7742;44.320;19.820;2022-07-22T02:50:37;15.60;;;14.80;;
15281;SDS011;7742;44.320;19.820;2022-07-22T06:21:13;14.45;;;13.75;;
15281;SDS011;7742;44.320;19.820;2022-07-22T06:23:41;14.80;;;14.00;;
15281;SDS011;7742;44.320;19.820;2022-07-22T06:26:09;15.63;;;14.65;;
15281;SDS011;7742;44.320;19.820;2022-07-22T06:28:37;15.13;;;14.43;;
15281;SDS011;7742;44.320;19.820;2022-07-22T06:31:05;15.80;;;14.80;;
15281;SDS011;7742;44.320;19.820;2022-07-22T07:24:39;15.00;;;14.23;;
15281;SDS011;7742;44.320;19.820;2022-07-22T07:27:07;15.90;;;15.00;;
15281;SDS011;7742;44.320;19.820;2022-07-22T07:29:35;15.45;;;14.55;;
15281;SDS011;7742;44.320;19.820;2022-07-22T07:32:03;15.65;;;14.90;;
15281;SDS011;7742;44.320;19.820;2022-07-22T07:34:31;15.93;;;15.05;;
15281;SDS011;7742;44.320;19.820;2022-07-22T07:36:58;16.35;;;15.23;;
15281;SDS011;7742;44.320;19.820;2022-07-22T07:39:26;16.48;;;15.35;;
15281;SDS011;7742;44.320;19.820;2022-07-22T07:41:58;15.82;;;14.93;;
15281;SDS011;7742;44.320;19.820;2022-07-22T07:44:26;14.80;;;14.10;;
15281;SDS011;7742;44.320;19.820;2022-07-22T07:46:54;15.50;;;14.50;;
15281;SDS011;7742;44.320;19.820;2022-07-22T07:49:22;15.90;;;14.90;;
15281;SDS011;7742;44.320;19.820;2022-07-22T07:51:50;15.57;;;14.55;;
15281;SDS011;7742;44.320;19.820;2022-07-22T07:54:17;15.77;;;14.77;;
15281;SDS011;7742;44.320;19.820;2022-07-22T08:27:36;14.80;;;14.00;;
15281;SDS011;7742;44.320;19.820;2022-07-22T08:30:05;15.35;;;14.32;;
15281;SDS011;7742;44.320;19.820;2022-07-22T08:32:33;15.52;;;14.52;;
15281;SDS011;7742;44.320;19.820;2022-07-22T08:35:01;15.80;;;14.70;;
15281;SDS011;7742;44.320;19.820;2022-07-22T08:37:32;15.75;;;14.65;;
15281;SDS011;7742;44.320;19.820;2022-07-22T08:40:00;15.32;;;14.43;;
15281;SDS011;7742;44.320;19.820;2022-07-22T08:42:27;15.27;;;14.38;;
15281;SDS011;7742;44.320;19.820;2022-07-22T08:44:57;15.02;;;13.88;;
15281;SDS011;7742;44.320;19.820;2022-07-22T08:47:25;15.00;;;14.30;;
15281;SDS011;7742;44.320;19.820;2022-07-22T08:49:52;15.70;;;14.75;;
15281;SDS011;7742;44.320;19.820;2022-07-22T08:52:20;16.23;;;15.20;;
15281;SDS011;7742;44.320;19.820;2022-07-22T08:54:48;15.60;;;14.70;;
15281;SDS011;7742;44.320;19.820;2022-07-22T08:57:17;17.55;;;16.17;;
15281;SDS011;7742;44.320;19.820;2022-07-22T08:59:51;16.70;;;15.32;;
15281;SDS011;7742;44.320;19.820;2022-07-22T09:02:21;16.50;;;15.50;;
15281;SDS011;7742;44.320;19.820;2022-07-22T09:04:50;16.13;;;15.10;;
15281;SDS011;7742;44.320;19.820;2022-07-22T09:07:28;15.60;;;14.70;;
15281;SDS011;7742;44.320;19.820;2022-07-22T09:09:57;16.20;;;15.20;;
15281;SDS011;7742;44.320;19.820;2022-07-22T09:24:51;16.70;;;15.38;;
15281;SDS011;7742;44.320;19.820;2022-07-22T09:27:22;16.52;;;15.30;;
15281;SDS011;7742;44.320;19.820;2022-07-22T09:29:52;15.60;;;14.70;;
15281;SDS011;7742;44.320;19.820;2022-07-22T09:51:01;15.98;;;15.02;;
15281;SDS011;7742;44.320;19.820;2022-07-22T10:05:59;15.82;;;14.85;;
15281;SDS011;7742;44.320;19.820;2022-07-22T10:08:33;15.68;;;14.77;;
15281;SDS011;7742;44.320;19.820;2022-07-22T10:11:01;16.20;;;15.15;;
15281;SDS011;7742;44.320;19.820;2022-07-22T10:13:29;15.70;;;14.85;;
15281;SDS011;7742;44.320;19.820;2022-07-22T10:19:18;15.38;;;14.48;;
15281;SDS011;7742;44.320;19.820;2022-07-22T10:21:50;16.23;;;15.23;;
15281;SDS011;7742;44.320;19.820;2022-07-22T10:24:18;15.88;;;14.85;;
15281;SDS011;7742;44.320;19.820;2022-07-22T10:26:49;16.73;;;15.48;;
15281;SDS011;7742;44.320;19.820;2022-07-22T10:29:24;16.67;;;15.45;;
15281;SDS011;7742;44.320;19.820;2022-07-22T10:34:34;26.63;;;17.30;;
15281;SDS011;7742;44.320;19.820;2022-07-22T10:37:04;16.92;;;15.43;;
15281;SDS011;7742;44.320;19.820;2022-07-22T10:39:31;16.00;;;14.82;;
15281;SDS011;7742;44.320;19.820;2022-07-22T10:41:59;16.88;;;15.65;;
15281;SDS011;7742;44.320;19.820;2022-07-22T10:47:15;17.00;;;15.90;;
15281;SDS011;7742;44.320;19.820;2022-07-22T10:49:44;16.38;;;15.35;;
15281;SDS011;7742;44.320;19.820;2022-07-22T10:52:13;15.95;;;14.80;;
15281;SDS011;7742;44.320;19.820;2022-07-22T10:57:32;15.48;;;14.68;;
15281;SDS011;7742;44.320;19.820;2022-07-22T11:00:00;15.75;;;14.80;;
15281;SDS011;7742;44.320;19.820;2022-07-22T11:02:27;16.05;;;14.93;;
15281;SDS011;7742;44.320;19.820;2022-07-22T11:04:55;16.38;;;15.18;;
15281;SDS011;7742;44.320;19.820;2022-07-22T11:07:25;16.10;;;14.95;;
15281;SDS011;7742;44.320;19.820;2022-07-22T11:09:54;15.77;;;14.85;;
15281;SDS011;7742;44.320;19.820;2022-07-22T11:12:35;15.80;;;14.80;;
15281;SDS011;7742;44.320;19.820;2022-07-22T11:15:03;15.50;;;14.50;;
15281;SDS011;7742;44.320;19.820;2022-07-22T11:17:32;14.50;;;13.55;;
15281;SDS011;7742;44.320;19.820;2022-07-22T11:20:00;15.25;;;14.20;;
15281;SDS011;7742;44.320;19.820;2022-07-22T11:22:30;15.48;;;14.68;;
15281;SDS011;7742;44.320;19.820;2022-07-22T11:24:58;15.80;;;14.80;;
15281;SDS011;7742;44.320;19.820;2022-07-22T11:27:27;16.13;;;15.02;;
15281;SDS011;7742;44.320;19.820;2022-07-22T11:29:55;15.82;;;14.82;;
15281;SDS011;7742;44.320;19.820;2022-07-22T11:32:23;16.02;;;15.02;;
15281;SDS011;7742;44.320;19.820;2022-07-22T11:34:51;16.30;;;15.15;;
15281;SDS011;7742;44.320;19.820;2022-07-22T11:37:19;15.80;;;14.80;;
15281;SDS011;7742;44.320;19.820;2022-07-22T11:39:50;15.68;;;14.45;;
15281;SDS011;7742;44.320;19.820;2022-07-22T11:42:18;15.63;;;14.50;;
15281;SDS011;7742;44.320;19.820;2022-07-22T11:44:46;16.35;;;14.95;;
15281;SDS011;7742;44.320;19.820;2022-07-22T11:47:14;17.42;;;16.08;;
15281;SDS011;7742;44.320;19.820;2022-07-22T11:49:41;16.40;;;15.20;;
15281;SDS011;7742;44.320;19.820;2022-07-22T11:52:09;16.25;;;15.13;;
15281;SDS011;7742;44.320;19.820;2022-07-22T11:54:38;16.23;;;15.25;;
15281;SDS011;7742;44.320;19.820;2022-07-22T11:57:08;16.33;;;15.35;;
15281;SDS011;7742;44.320;19.820;2022-07-22T11:59:36;16.80;;;15.57;;
15281;SDS011;7742;44.320;19.820;2022-07-22T12:02:03;17.10;;;15.60;;
15281;SDS011;7742;44.320;19.820;2022-07-22T12:04:31;16.73;;;15.73;;
15281;SDS011;7742;44.320;19.820;2022-07-22T12:07:00;16.90;;;15.90;;
15281;SDS011;7742;44.320;19.820;2022-07-22T12:09:29;16.42;;;15.18;;
15281;SDS011;7742;44.320;19.820;2022-07-22T12:11:57;15.95;;;14.95;;
15281;SDS011;7742;44.320;19.820;2022-07-22T12:14:27;15.70;;;14.80;;
15281;SDS011;7742;44.320;19.820;2022-07-22T12:16:57;15.70;;;14.90;;
15281;SDS011;7742;44.320;19.820;2022-07-22T12:19:25;14.55;;;13.85;;
15281;SDS011;7742;44.320;19.820;2022-07-22T12:21:55;15.73;;;14.73;;
15281;SDS011;7742;44.320;19.820;2022-07-22T12:24:26;15.63;;;14.73;;
15281;SDS011;7742;44.320;19.820;2022-07-22T12:26:55;15.43;;;14.32;;
15281;SDS011;7742;44.320;19.820;2022-07-22T12:29:23;15.13;;;14.23;;
15281;SDS011;7742;44.320;19.820;2022-07-22T12:31:53;15.18;;;14.15;;
15281;SDS011;7742;44.320;19.820;2022-07-22T12:34:34;15.73;;;14.55;;
15281;SDS011;7742;44.320;19.820;2022-07-22T12:37:12;15.90;;;14.85;;
15281;SDS011;7742;44.320;19.820;2022-07-22T12:39:51;15.75;;;14.68;;
15281;SDS011;7742;44.320;19.820;2022-07-22T12:42:19;14.70;;;13.75;;
15281;SDS011;7742;44.320;19.820;2022-07-22T12:44:50;14.85;;;13.95;;
15281;SDS011;7742;44.320;19.820;2022-07-22T12:50:16;14.05;;;13.35;;
15281;SDS011;7742;44.320;19.820;2022-07-22T12:52:43;15.75;;;14.80;;
15281;SDS011;7742;44.320;19.820;2022-07-22T12:55:11;17.85;;;16.60;;
15281;SDS011;7742;44.320;19.820;2022-07-22T12:57:39;17.63;;;16.35;;
15281;SDS011;7742;44.320;19.820;2022-07-22T13:00:07;18.88;;;17.85;;
15281;SDS011;7742;44.320;19.820;2022-07-22T13:02:35;18.65;;;17.20;;
15281;SDS011;7742;44.320;19.820;2022-07-22T13:05:04;16.67;;;15.35;;
15281;SDS011;7742;44.320;19.820;2022-07-22T13:07:33;16.50;;;15.60;;
15281;SDS011;7742;44.320;19.820;2022-07-22T13:10:01;16.45;;;15.30;;
15281;SDS011;7742;44.320;19.820;2022-07-22T13:12:28;15.23;;;14.23;;
15281;SDS011;7742;44.320;19.820;2022-07-22T13:14:56;16.15;;;15.20;;
15281;SDS011;7742;44.320;19.820;2022-07-22T13:17:24;16.67;;;15.68;;
15281;SDS011;7742;44.320;19.820;2022-07-22T13:19:51;14.80;;;14.00;;
15281;SDS011;7742;44.320;19.820;2022-07-22T13:22:19;15.60;;;14.60;;
15281;SDS011;7742;44.320;19.820;2022-07-22T13:24:48;16.52;;;15.73;;
15281;SDS011;7742;44.320;19.820;2022-07-22T13:27:16;15.55;;;14.43;;
15281;SDS011;7742;44.320;19.820;2022-07-22T13:29:44;15.63;;;14.50;;
15281;SDS011;7742;44.320;19.820;2022-07-22T13:32:11;15.25;;;14.07;;
15281;SDS011;7742;44.320;19.820;2022-07-22T13:34:39;15.20;;;14.40;;
15281;SDS011;7742;44.320;19.820;2022-07-22T13:37:07;14.98;;;14.10;;
15281;SDS011;7742;44.320;19.820;2022-07-22T13:39:35;16.20;;;15.10;;
15281;SDS011;7742;44.320;19.820;2022-07-22T13:42:04;16.02;;;15.00;;
15281;SDS011;7742;44.320;19.820;2022-07-22T13:44:32;15.55;;;14.63;;
15281;SDS011;7742;44.320;19.820;2022-07-22T13:47:01;15.80;;;14.60;;
15281;SDS011;7742;44.320;19.820;2022-07-22T13:49:29;16.02;;;15.00;;
15281;SDS011;7742;44.320;19.820;2022-07-22T13:51:56;15.98;;;14.77;;
15281;SDS011;7742;44.320;19.820;2022-07-22T13:54:24;15.95;;;14.85;;
15281;SDS011;7742;44.320;19.820;2022-07-22T13:56:52;17.70;;;16.48;;
15281;SDS011;7742;44.320;19.820;2022-07-22T13:59:22;15.93;;;14.73;;
15281;SDS011;7742;44.320;19.820;2022-07-22T14:01:51;15.27;;;14.43;;
15281;SDS011;7742;44.320;19.820;2022-07-22T14:04:19;16.15;;;15.00;;
15281;SDS011;7742;44.320;19.820;2022-07-22T14:06:46;15.02;;;14.02;;
15281;SDS011;7742;44.320;19.820;2022-07-22T14:09:14;15.32;;;14.25;;
15281;SDS011;7742;44.320;19.820;2022-07-22T14:11:42;14.88;;;14.07;;
15281;SDS011;7742;44.320;19.820;2022-07-22T14:14:10;14.48;;;13.68;;
15281;SDS011;7742;44.320;19.820;2022-07-22T14:16:41;14.63;;;13.73;;
15281;SDS011;7742;44.320;19.820;2022-07-22T14:19:09;14.20;;;13.50;;
15281;SDS011;7742;44.320;19.820;2022-07-22T14:21:39;14.32;;;13.43;;
15281;SDS011;7742;44.320;19.820;2022-07-22T14:24:08;15.00;;;14.00;;
15281;SDS011;7742;44.320;19.820;2022-07-22T14:26:37;15.25;;;14.45;;
15281;SDS011;7742;44.320;19.820;2022-07-22T14:29:07;15.52;;;14.35;;
15281;SDS011;7742;44.320;19.820;2022-07-22T14:31:34;15.45;;;14.30;;
15281;SDS011;7742;44.320;19.820;2022-07-22T14:34:04;14.52;;;13.75;;
15281;SDS011;7742;44.320;19.820;2022-07-22T14:36:31;15.57;;;14.68;;
15281;SDS011;7742;44.320;19.820;2022-07-22T14:38:59;14.50;;;13.73;;
15281;SDS011;7742;44.320;19.820;2022-07-22T14:41:27;14.75;;;14.00;;
15281;SDS011;7742;44.320;19.820;2022-07-22T14:43:54;15.68;;;14.73;;
15281;SDS011;7742;44.320;19.820;2022-07-22T14:46:22;15.05;;;14.05;;
15281;SDS011;7742;44.320;19.820;2022-07-22T14:48:50;15.73;;;14.73;;
15281;SDS011;7742;44.320;19.820;2022-07-22T14:51:21;14.35;;;13.45;;
15281;SDS011;7742;44.320;19.820;2022-07-22T14:53:49;14.60;;;13.80;;
15281;SDS011;7742;44.320;19.820;2022-07-22T14:56:16;16.10;;;14.95;;
15281;SDS011;7742;44.320;19.820;2022-07-22T14:58:44;14.05;;;13.30;;
15281;SDS011;7742;44.320;19.820;2022-07-22T15:01:12;14.15;;;13.35;;
15281;SDS011;7742;44.320;19.820;2022-07-22T15:03:40;15.05;;;14.05;;
15281;SDS011;7742;44.320;19.820;2022-07-22T15:06:08;16.27;;;14.85;;
15281;SDS011;7742;44.320;19.820;2022-07-22T15:08:37;16.08;;;14.80;;
15281;SDS011;7742;44.320;19.820;2022-07-22T15:11:05;15.90;;;15.00;;
15281;SDS011;7742;44.320;19.820;2022-07-22T15:13:33;15.07;;;14.20;;
15281;SDS011;7742;44.320;19.820;2022-07-22T15:16:00;15.23;;;14.23;;
15281;SDS011;7742;44.320;19.820;2022-07-22T15:18:29;14.77;;;13.70;;
15281;SDS011;7742;44.320;19.820;2022-07-22T15:20:57;15.20;;;14.30;;
15281;SDS011;7742;44.320;19.820;2022-07-22T15:23:25;14.57;;;13.68;;
15281;SDS011;7742;44.320;19.820;2022-07-22T15:25:56;15.43;;;14.43;;
15281;SDS011;7742;44.320;19.820;2022-07-22T15:28:24;16.40;;;15.55;;
15281;SDS011;7742;44.320;19.820;2022-07-22T15:30:52;14.43;;;13.43;;
15281;SDS011;7742;44.320;19.820;2022-07-22T15:33:20;15.10;;;14.30;;
15281;SDS011;7742;44.320;19.820;2022-07-22T15:35:48;15.02;;;13.95;;
15281;SDS011;7742;44.320;19.820;2022-07-22T15:38:15;15.07;;;14.00;;
15281;SDS011;7742;44.320;19.820;2022-07-22T15:40:43;14.65;;;13.80;;
15281;SDS011;7742;44.320;19.820;2022-07-22T15:43:12;16.58;;;15.57;;
15281;SDS011;7742;44.320;19.820;2022-07-22T15:45:40;14.82;;;13.95;;
15281;SDS011;7742;44.320;19.820;2022-07-22T15:48:07;14.38;;;13.57;;
15281;SDS011;7742;44.320;19.820;2022-07-22T15:50:35;14.98;;;14.00;;
15281;SDS011;7742;44.320;19.820;2022-07-22T15:53:03;14.50;;;13.52;;
15281;SDS011;7742;44.320;19.820;2022-07-22T15:55:31;14.50;;;13.43;;
15281;SDS011;7742;44.320;19.820;2022-07-22T15:57:58;14.60;;;13.60;;
15281;SDS011;7742;44.320;19.820;2022-07-22T16:00:45;13.98;;;13.27;;
15281;SDS011;7742;44.320;19.820;2022-07-22T16:03:13;14.15;;;13.20;;
15281;SDS011;7742;44.320;19.820;2022-07-22T16:05:41;13.98;;;13.27;;
15281;SDS011;7742;44.320;19.820;2022-07-22T16:08:08;14.70;;;13.77;;
15281;SDS011;7742;44.320;19.820;2022-07-22T16:10:36;14.40;;;13.60;;
15281;SDS011;7742;44.320;19.820;2022-07-22T16:13:04;14.35;;;13.45;;
15281;SDS011;7742;44.320;19.820;2022-07-22T16:15:31;14.18;;;13.38;;
15281;SDS011;7742;44.320;19.820;2022-07-22T16:18:00;14.10;;;13.30;;
15281;SDS011;7742;44.320;19.820;2022-07-22T16:20:28;14.88;;;13.98;;
15281;SDS011;7742;44.320;19.820;2022-07-22T16:22:56;14.95;;;14.15;;
15281;SDS011;7742;44.320;19.820;2022-07-22T16:25:24;14.40;;;13.45;;
15281;SDS011;7742;44.320;19.820;2022-07-22T16:27:52;14.13;;;13.35;;
15281;SDS011;7742;44.320;19.820;2022-07-22T16:30:19;14.18;;;13.20;;
15281;SDS011;7742;44.320;19.820;2022-07-22T16:32:47;14.10;;;13.35;;
15281;SDS011;7742;44.320;19.820;2022-07-22T16:35:16;14.88;;;13.82;;
15281;SDS011;7742;44.320;19.820;2022-07-22T16:37:44;15.43;;;14.50;;
15281;SDS011;7742;44.320;19.820;2022-07-22T16:40:12;15.10;;;14.05;;
15281;SDS011;7742;44.320;19.820;2022-07-22T16:42:39;14.27;;;13.52;;
15281;SDS011;7742;44.320;19.820;2022-07-22T16:45:08;13.80;;;13.10;;
15281;SDS011;7742;44.320;19.820;2022-07-22T16:47:35;14.27;;;13.27;;
15281;SDS011;7742;44.320;19.820;2022-07-22T16:50:03;14.10;;;13.30;;
15281;SDS011;7742;44.320;19.820;2022-07-22T16:52:33;14.50;;;13.48;;
15281;SDS011;7742;44.320;19.820;2022-07-22T16:55:01;14.30;;;13.50;;
15281;SDS011;7742;44.320;19.820;2022-07-22T16:57:28;14.43;;;13.70;;
15281;SDS011;7742;44.320;19.820;2022-07-22T16:59:57;15.00;;;14.00;;
15281;SDS011;7742;44.320;19.820;2022-07-22T17:02:25;15.18;;;14.27;;
15281;SDS011;7742;44.320;19.820;2022-07-22T17:04:53;15.75;;;14.75;;
15281;SDS011;7742;44.320;19.820;2022-07-22T17:07:20;15.32;;;14.43;;
15281;SDS011;7742;44.320;19.820;2022-07-22T17:09:50;15.70;;;14.60;;
15281;SDS011;7742;44.320;19.820;2022-07-22T17:12:17;15.98;;;14.68;;
15281;SDS011;7742;44.320;19.820;2022-07-22T17:14:46;16.15;;;14.93;;
15281;SDS011;7742;44.320;19.820;2022-07-22T17:17:18;15.75;;;14.70;;
15281;SDS011;7742;44.320;19.820;2022-07-22T17:19:45;15.77;;;14.60;;
15281;SDS011;7742;44.320;19.820;2022-07-22T17:22:13;15.57;;;14.40;;
15281;SDS011;7742;44.320;19.820;2022-07-22T17:24:41;15.10;;;14.20;;
15281;SDS011;7742;44.320;19.820;2022-07-22T17:27:10;14.88;;;14.05;;
15281;SDS011;7742;44.320;19.820;2022-07-22T17:29:38;15.07;;;14.25;;
15281;SDS011;7742;44.320;19.820;2022-07-22T17:32:05;14.98;;;14.10;;
15281;SDS011;7742;44.320;19.820;2022-07-22T17:34:33;15.45;;;14.55;;
15281;SDS011;7742;44.320;19.820;2022-07-22T17:37:01;15.35;;;14.63;;
15281;SDS011;7742;44.320;19.820;2022-07-22T17:39:29;15.45;;;14.65;;
15281;SDS011;7742;44.320;19.820;2022-07-22T17:41:57;16.60;;;15.50;;
15281;SDS011;7742;44.320;19.820;2022-07-22T17:44:27;15.43;;;14.63;;
15281;SDS011;7742;44.320;19.820;2022-07-22T17:46:54;15.27;;;14.45;;
15281;SDS011;7742;44.320;19.820;2022-07-22T17:49:22;15.13;;;14.32;;
15281;SDS011;7742;44.320;19.820;2022-07-22T17:51:50;15.23;;;14.38;;
15281;SDS011;7742;44.320;19.820;2022-07-22T17:54:18;15.38;;;14.57;;
15281;SDS011;7742;44.320;19.820;2022-07-22T17:56:46;15.88;;;14.82;;
15281;SDS011;7742;44.320;19.820;2022-07-22T17:59:14;15.55;;;14.75;;
15281;SDS011;7742;44.320;19.820;2022-07-22T18:01:43;17.40;;;16.50;;
15281;SDS011;7742;44.320;19.820;2022-07-22T18:04:11;15.70;;;14.80;;
15281;SDS011;7742;44.320;19.820;2022-07-22T18:06:39;16.55;;;15.25;;
15281;SDS011;7742;44.320;19.820;2022-07-22T18:09:07;15.90;;;14.90;;
15281;SDS011;7742;44.320;19.820;2022-07-22T18:11:35;15.95;;;14.90;;
15281;SDS011;7742;44.320;19.820;2022-07-22T18:14:06;15.57;;;14.70;;
15281;SDS011;7742;44.320;19.820;2022-07-22T18:16:34;16.20;;;15.30;;
15281;SDS011;7742;44.320;19.820;2022-07-22T18:19:03;16.40;;;15.40;;
15281;SDS011;7742;44.320;19.820;2022-07-22T18:21:31;16.05;;;15.18;;
15281;SDS011;7742;44.320;19.820;2022-07-22T18:23:59;16.35;;;15.50;;
15281;SDS011;7742;44.320;19.820;2022-07-22T18:26:27;15.75;;;14.95;;
15281;SDS011;7742;44.320;19.820;2022-07-22T18:28:55;16.70;;;15.70;;
15281;SDS011;7742;44.320;19.820;2022-07-22T18:31:23;15.52;;;14.60;;
15281;SDS011;7742;44.320;19.820;2022-07-22T18:33:51;17.60;;;16.50;;
15281;SDS011;7742;44.320;19.820;2022-07-22T18:36:21;15.20;;;14.30;;
15281;SDS011;7742;44.320;19.820;2022-07-22T18:38:49;15.00;;;14.20;;
15281;SDS011;7742;44.320;19.820;2022-07-22T18:41:16;14.85;;;14.15;;
15281;SDS011;7742;44.320;19.820;2022-07-22T18:43:44;14.80;;;14.10;;
15281;SDS011;7742;44.320;19.820;2022-07-22T18:46:12;14.30;;;13.60;;
15281;SDS011;7742;44.320;19.820;2022-07-22T18:48:40;16.10;;;15.10;;
15281;SDS011;7742;44.320;19.820;2022-07-22T18:51:07;15.50;;;14.70;;
15281;SDS011;7742;44.320;19.820;2022-07-22T18:53:37;15.50;;;14.77;;
15281;SDS011;7742;44.320;19.820;2022-07-22T18:56:05;15.80;;;14.90;;
15281;SDS011;7742;44.320;19.820;2022-07-22T18:58:34;16.03;;;14.90;;
15281;SDS011;7742;44.320;19.820;2022-07-22T19:01:01;15.27;;;14.57;;
15281;SDS011;7742;44.320;19.820;2022-07-22T19:03:29;14.93;;;14.17;;
15281;SDS011;7742;44.320;19.820;2022-07-22T19:05:57;14.80;;;14.10;;
15281;SDS011;7742;44.320;19.820;2022-07-22T19:08:25;14.77;;;14.07;;
15281;SDS011;7742;44.320;19.820;2022-07-22T19:10:54;14.00;;;13.30;;
15281;SDS011;7742;44.320;19.820;2022-07-22T19:13:22;14.97;;;14.07;;
15281;SDS011;7742;44.320;19.820;2022-07-22T19:15:49;15.37;;;14.50;;
15281;SDS011;7742;44.320;19.820;2022-07-22T19:18:20;15.30;;;14.50;;
15281;SDS011;7742;44.320;19.820;2022-07-22T19:20:48;15.17;;;14.40;;
15281;SDS011;7742;44.320;19.820;2022-07-22T19:23:16;15.27;;;14.40;;
15281;SDS011;7742;44.320;19.820;2022-07-22T19:25:45;16.00;;;14.90;;
15281;SDS011;7742;44.320;19.820;2022-07-22T19:28:15;14.73;;;14.07;;
15281;SDS011;7742;44.320;19.820;2022-07-22T19:30:43;16.30;;;15.03;;
15281;SDS011;7742;44.320;19.820;2022-07-22T19:33:10;14.70;;;14.00;;
15281;SDS011;7742;44.320;19.820;2022-07-22T19:35:38;14.27;;;13.60;;
15281;SDS011;7742;44.320;19.820;2022-07-22T19:38:06;13.90;;;13.10;;
15281;SDS011;7742;44.320;19.820;2022-07-22T19:40:34;14.80;;;14.10;;
15281;SDS011;7742;44.320;19.820;2022-07-22T19:43:01;14.90;;;14.10;;
15281;SDS011;7742;44.320;19.820;2022-07-22T19:45:31;15.27;;;14.40;;
15281;SDS011;7742;44.320;19.820;2022-07-22T19:47:58;14.53;;;13.83;;
15281;SDS011;7742;44.320;19.820;2022-07-22T19:50:26;15.80;;;15.10;;
15281;SDS011;7742;44.320;19.820;2022-07-22T19:52:54;15.57;;;14.77;;
15281;SDS011;7742;44.320;19.820;2022-07-22T19:55:21;15.33;;;14.53;;
15281;SDS011;7742;44.320;19.820;2022-07-22T19:57:49;15.17;;;14.27;;
15281;SDS011;7742;44.320;19.820;2022-07-22T20:00:17;15.70;;;14.90;;
15281;SDS011;7742;44.320;19.820;2022-07-22T20:02:47;15.10;;;14.40;;
15281;SDS011;7742;44.320;19.820;2022-07-22T20:05:15;16.20;;;15.40;;
15281;SDS011;7742;44.320;19.820;2022-07-22T20:07:42;14.43;;;13.73;;
15281;SDS011;7742;44.320;19.820;2022-07-22T20:10:10;15.03;;;14.23;;
15281;SDS011;7742;44.320;19.820;2022-07-22T20:12:38;14.37;;;13.67;;
15281;SDS011;7742;44.320;19.820;2022-07-22T20:15:07;14.20;;;13.50;;
15281;SDS011;7742;44.320;19.820;2022-07-22T20:17:35;16.40;;;15.60;;
15281;SDS011;7742;44.320;19.820;2022-07-22T20:20:16;15.93;;;15.17;;
15281;SDS011;7742;44.320;19.820;2022-07-22T20:22:43;15.43;;;14.77;;
15281;SDS011;7742;44.320;19.820;2022-07-22T20:25:11;15.37;;;14.63;;
15281;SDS011;7742;44.320;19.820;2022-07-22T20:27:39;16.10;;;15.13;;
15281;SDS011;7742;44.320;19.820;2022-07-22T20:30:09;15.83;;;14.90;;
15281;SDS011;7742;44.320;19.820;2022-07-22T20:32:38;15.70;;;14.80;;
15281;SDS011;7742;44.320;19.820;2022-07-22T20:35:09;15.30;;;14.33;;
15281;SDS011;7742;44.320;19.820;2022-07-22T20:37:45;14.67;;;14.07;;
15281;SDS011;7742;44.320;19.820;2022-07-22T20:40:12;15.17;;;14.47;;
15281;SDS011;7742;44.320;19.820;2022-07-22T20:42:40;15.30;;;14.40;;
15281;SDS011;7742;44.320;19.820;2022-07-22T20:45:08;15.40;;;14.60;;
15281;SDS011;7742;44.320;19.820;2022-07-22T20:47:38;15.50;;;14.60;;
15281;SDS011;7742;44.320;19.820;2022-07-22T20:50:08;15.80;;;14.93;;
15281;SDS011;7742;44.320;19.820;2022-07-22T20:52:36;15.43;;;14.63;;
15281;SDS011;7742;44.320;19.820;2022-07-22T20:55:04;15.20;;;14.43;;
15281;SDS011;7742;44.320;19.820;2022-07-22T20:57:32;15.23;;;14.50;;
15281;SDS011;7742;44.320;19.820;2022-07-22T21:00:00;15.23;;;14.50;;
15281;SDS011;7742;44.320;19.820;2022-07-22T21:02:28;15.30;;;14.60;;
15281;SDS011;7742;44.320;19.820;2022-07-22T21:04:55;15.60;;;14.80;;
15281;SDS011;7742;44.320;19.820;2022-07-22T21:07:25;15.77;;;14.87;;
15281;SDS011;7742;44.320;19.820;2022-07-22T21:09:52;16.10;;;15.23;;
15281;SDS011;7742;44.320;19.820;2022-07-22T21:12:20;16.03;;;15.13;;
15281;SDS011;7742;44.320;19.820;2022-07-22T21:14:48;15.07;;;14.37;;
15281;SDS011;7742;44.320;19.820;2022-07-22T21:17:16;15.30;;;14.60;;
15281;SDS011;7742;44.320;19.820;2022-07-22T21:19:43;15.10;;;14.30;;
15281;SDS011;7742;44.320;19.820;2022-07-22T21:22:11;14.60;;;13.90;;
15281;SDS011;7742;44.320;19.820;2022-07-22T21:24:40;14.30;;;13.60;;
15281;SDS011;7742;44.320;19.820;2022-07-22T21:27:08;14.83;;;14.13;;
15281;SDS011;7742;44.320;19.820;2022-07-22T21:29:36;14.70;;;13.90;;
15281;SDS011;7742;44.320;19.820;2022-07-22T21:32:03;14.67;;;14.00;;
15281;SDS011;7742;44.320;19.820;2022-07-22T21:34:31;14.67;;;13.77;;
15281;SDS011;7742;44.320;19.820;2022-07-22T21:36:59;14.27;;;13.57;;
15281;SDS011;7742;44.320;19.820;2022-07-22T21:39:35;14.83;;;14.00;;
15281;SDS011;7742;44.320;19.820;2022-07-22T21:45:05;14.10;;;13.40;;
15281;SDS011;7742;44.320;19.820;2022-07-22T21:47:33;14.97;;;14.27;;
15281;SDS011;7742;44.320;19.820;2022-07-22T21:50:01;14.03;;;13.43;;
15281;SDS011;7742;44.320;19.820;2022-07-22T21:52:29;14.30;;;13.50;;
15281;SDS011;7742;44.320;19.820;2022-07-22T21:54:56;14.67;;;13.93;;